sensor_id;sensor_type;location;lat;lon;timestamp;P1;durP1;ratioP1;P2;durP2;ratioP2
66739;SDS011;53653;52.188;8.602;2023-07-22T00:02:23;19.27;;;9.40;;
66739;SDS011;53653;52.188;8.602;2023-07-22T00:04:48;19.53;;;8.90;;
66739;SDS011;53653;52.188;8.602;2023-07-22T00:07:14;21.67;;;8.60;;
66739;SDS011;53653;52.188;8.602;2023-07-22T00:09:40;18.73;;;9.17;;
66739;SDS011;53653;52.188;8.602;2023-07-22T00:12:07;21.42;;;9.18;;
66739;SDS011;53653;52.188;8.602;2023-07-22T00:14:33;20.08;;;8.82;;
66739;SDS011;53653;52.188;8.602;2023-07-22T00:16:59;16.90;;;8.50;;
66739;SDS011;53653;52.188;8.602;2023-07-22T00:19:25;20.03;;;8.80;;
66739;SDS011;53653;52.188;8.602;2023-07-22T00:21:50;17.90;;;8.80;;
66739;SDS011;53653;52.188;8.602;2023-07-22T00:24:17;19.13;;;9.38;;
66739;SDS011;53653;52.188;8.602;2023-07-22T00:26:43;19.80;;;8.98;;
66739;SDS011;53653;52.188;8.602;2023-07-22T00:29:08;22.53;;;9.17;;
66739;SDS011;53653;52.188;8.602;2023-07-22T00:31:34;19.37;;;8.90;;
66739;SDS011;53653;52.188;8.602;2023-07-22T00:33:59;20.17;;;8.88;;
66739;SDS011;53653;52.188;8.602;2023-07-22T00:36:25;22.53;;;8.97;;
66739;SDS011;53653;52.188;8.602;2023-07-22T00:38:51;21.58;;;9.23;;
66739;SDS011;53653;52.188;8.602;2023-07-22T00:41:18;22.40;;;9.57;;
66739;SDS011;53653;52.188;8.602;2023-07-22T00:43:43;19.53;;;8.93;;
66739;SDS011;53653;52.188;8.602;2023-07-22T00:46:09;20.20;;;9.20;;
66739;SDS011;53653;52.188;8.602;2023-07-22T00:48:34;20.87;;;9.13;;
66739;SDS011;53653;52.188;8.602;2023-07-22T00:51:01;22.85;;;9.77;;
66739;SDS011;53653;52.188;8.602;2023-07-22T00:53:26;20.27;;;9.03;;
66739;SDS011;53653;52.188;8.602;2023-07-22T00:55:52;22.87;;;9.23;;
66739;SDS011;53653;52.188;8.602;2023-07-22T00:58:20;23.48;;;9.95;;
66739;SDS011;53653;52.188;8.602;2023-07-22T01:00:45;22.35;;;9.75;;
66739;SDS011;53653;52.188;8.602;2023-07-22T01:03:11;25.65;;;9.52;;
66739;SDS011;53653;52.188;8.602;2023-07-22T01:05:38;18.77;;;8.95;;
66739;SDS011;53653;52.188;8.602;2023-07-22T01:08:04;22.53;;;9.63;;
66739;SDS011;53653;52.188;8.602;2023-07-22T01:10:30;24.42;;;9.20;;
66739;SDS011;53653;52.188;8.602;2023-07-22T01:12:56;22.20;;;9.23;;
66739;SDS011;53653;52.188;8.602;2023-07-22T01:15:22;23.80;;;10.27;;
66739;SDS011;53653;52.188;8.602;2023-07-22T01:17:49;19.42;;;9.52;;
66739;SDS011;53653;52.188;8.602;2023-07-22T01:20:15;21.58;;;9.32;;
66739;SDS011;53653;52.188;8.602;2023-07-22T01:22:50;21.33;;;9.87;;
66739;SDS011;53653;52.188;8.602;2023-07-22T01:25:18;19.52;;;9.05;;
66739;SDS011;53653;52.188;8.602;2023-07-22T01:27:45;25.45;;;9.88;;
66739;SDS011;53653;52.188;8.602;2023-07-22T01:30:10;17.93;;;9.07;;
66739;SDS011;53653;52.188;8.602;2023-07-22T01:32:36;19.40;;;9.02;;
66739;SDS011;53653;52.188;8.602;2023-07-22T01:35:02;23.60;;;9.37;;
66739;SDS011;53653;52.188;8.602;2023-07-22T01:37:27;22.47;;;8.50;;
66739;SDS011;53653;52.188;8.602;2023-07-22T01:39:53;20.92;;;9.13;;
66739;SDS011;53653;52.188;8.602;2023-07-22T01:42:22;23.63;;;9.70;;
66739;SDS011;53653;52.188;8.602;2023-07-22T01:44:48;23.27;;;9.80;;
66739;SDS011;53653;52.188;8.602;2023-07-22T01:47:13;21.83;;;9.73;;
66739;SDS011;53653;52.188;8.602;2023-07-22T01:49:39;26.17;;;9.93;;
66739;SDS011;53653;52.188;8.602;2023-07-22T01:52:04;21.97;;;8.63;;
66739;SDS011;53653;52.188;8.602;2023-07-22T01:54:30;22.80;;;9.70;;
66739;SDS011;53653;52.188;8.602;2023-07-22T01:56:55;26.57;;;9.80;;
66739;SDS011;53653;52.188;8.602;2023-07-22T01:59:21;22.70;;;9.40;;
66739;SDS011;53653;52.188;8.602;2023-07-22T02:01:47;23.33;;;9.60;;
66739;SDS011;53653;52.188;8.602;2023-07-22T02:04:13;21.73;;;9.33;;
66739;SDS011;53653;52.188;8.602;2023-07-22T02:06:38;26.00;;;9.82;;
66739;SDS011;53653;52.188;8.602;2023-07-22T02:09:04;25.20;;;9.37;;
66739;SDS011;53653;52.188;8.602;2023-07-22T02:11:34;25.65;;;9.50;;
66739;SDS011;53653;52.188;8.602;2023-07-22T02:14:00;21.83;;;10.00;;
66739;SDS011;53653;52.188;8.602;2023-07-22T02:16:25;27.73;;;9.87;;
66739;SDS011;53653;52.188;8.602;2023-07-22T02:18:51;23.83;;;9.30;;
66739;SDS011;53653;52.188;8.602;2023-07-22T02:21:16;22.45;;;9.82;;
66739;SDS011;53653;52.188;8.602;2023-07-22T02:23:42;26.17;;;9.23;;
66739;SDS011;53653;52.188;8.602;2023-07-22T02:26:07;22.80;;;9.17;;
66739;SDS011;53653;52.188;8.602;2023-07-22T02:28:33;23.58;;;8.40;;
66739;SDS011;53653;52.188;8.602;2023-07-22T02:31:00;20.47;;;8.47;;
66739;SDS011;53653;52.188;8.602;2023-07-22T02:33:31;19.58;;;8.55;;
66739;SDS011;53653;52.188;8.602;2023-07-22T02:35:57;21.30;;;8.80;;
66739;SDS011;53653;52.188;8.602;2023-07-22T02:38:22;22.10;;;8.43;;
66739;SDS011;53653;52.188;8.602;2023-07-22T02:40:47;22.58;;;9.25;;
66739;SDS011;53653;52.188;8.602;2023-07-22T02:43:13;21.20;;;9.00;;
66739;SDS011;53653;52.188;8.602;2023-07-22T02:45:39;25.73;;;8.67;;
66739;SDS011;53653;52.188;8.602;2023-07-22T02:48:04;22.52;;;8.65;;
66739;SDS011;53653;52.188;8.602;2023-07-22T02:50:30;26.23;;;8.97;;
66739;SDS011;53653;52.188;8.602;2023-07-22T02:52:56;19.95;;;8.27;;
66739;SDS011;53653;52.188;8.602;2023-07-22T02:55:22;18.40;;;7.93;;
66739;SDS011;53653;52.188;8.602;2023-07-22T02:57:48;20.58;;;8.38;;
66739;SDS011;53653;52.188;8.602;2023-07-22T03:00:15;18.52;;;8.15;;
66739;SDS011;53653;52.188;8.602;2023-07-22T03:02:49;29.10;;;9.10;;
66739;SDS011;53653;52.188;8.602;2023-07-22T03:05:16;20.92;;;8.85;;
66739;SDS011;53653;52.188;8.602;2023-07-22T03:07:41;22.08;;;8.85;;
66739;SDS011;53653;52.188;8.602;2023-07-22T03:10:07;17.33;;;7.57;;
66739;SDS011;53653;52.188;8.602;2023-07-22T03:12:34;23.15;;;8.85;;
66739;SDS011;53653;52.188;8.602;2023-07-22T03:15:01;21.73;;;8.07;;
66739;SDS011;53653;52.188;8.602;2023-07-22T03:17:26;29.53;;;8.57;;
66739;SDS011;53653;52.188;8.602;2023-07-22T03:19:52;27.87;;;8.03;;
66739;SDS011;53653;52.188;8.602;2023-07-22T03:22:17;24.67;;;8.53;;
66739;SDS011;53653;52.188;8.602;2023-07-22T03:24:44;22.55;;;8.45;;
66739;SDS011;53653;52.188;8.602;2023-07-22T03:27:10;22.02;;;8.73;;
66739;SDS011;53653;52.188;8.602;2023-07-22T03:29:36;21.67;;;9.03;;
66739;SDS011;53653;52.188;8.602;2023-07-22T03:32:03;22.00;;;8.30;;
66739;SDS011;53653;52.188;8.602;2023-07-22T03:34:32;24.02;;;8.05;;
66739;SDS011;53653;52.188;8.602;2023-07-22T03:36:57;23.58;;;9.10;;
66739;SDS011;53653;52.188;8.602;2023-07-22T03:39:24;24.33;;;9.02;;
66739;SDS011;53653;52.188;8.602;2023-07-22T03:41:49;22.93;;;8.77;;
66739;SDS011;53653;52.188;8.602;2023-07-22T03:44:15;22.70;;;8.68;;
66739;SDS011;53653;52.188;8.602;2023-07-22T03:46:41;26.27;;;8.87;;
66739;SDS011;53653;52.188;8.602;2023-07-22T03:49:06;27.93;;;9.17;;
66739;SDS011;53653;52.188;8.602;2023-07-22T03:51:32;23.60;;;8.80;;
66739;SDS011;53653;52.188;8.602;2023-07-22T03:53:58;22.80;;;8.57;;
66739;SDS011;53653;52.188;8.602;2023-07-22T03:56:23;21.13;;;8.70;;
66739;SDS011;53653;52.188;8.602;2023-07-22T03:58:49;21.80;;;8.30;;
66739;SDS011;53653;52.188;8.602;2023-07-22T04:01:15;18.90;;;8.05;;
66739;SDS011;53653;52.188;8.602;2023-07-22T04:03:41;17.38;;;7.72;;
66739;SDS011;53653;52.188;8.602;2023-07-22T04:06:06;20.93;;;8.20;;
66739;SDS011;53653;52.188;8.602;2023-07-22T04:08:32;19.30;;;8.10;;
66739;SDS011;53653;52.188;8.602;2023-07-22T04:10:57;20.70;;;8.50;;
66739;SDS011;53653;52.188;8.602;2023-07-22T04:13:23;22.87;;;8.00;;
66739;SDS011;53653;52.188;8.602;2023-07-22T04:15:50;18.52;;;8.07;;
66739;SDS011;53653;52.188;8.602;2023-07-22T04:18:16;22.07;;;8.23;;
66739;SDS011;53653;52.188;8.602;2023-07-22T04:20:42;20.77;;;7.85;;
66739;SDS011;53653;52.188;8.602;2023-07-22T04:23:08;21.23;;;8.40;;
66739;SDS011;53653;52.188;8.602;2023-07-22T04:25:44;22.23;;;8.60;;
66739;SDS011;53653;52.188;8.602;2023-07-22T04:28:10;21.83;;;8.70;;
66739;SDS011;53653;52.188;8.602;2023-07-22T04:30:36;20.77;;;8.52;;
66739;SDS011;53653;52.188;8.602;2023-07-22T04:33:03;22.98;;;8.55;;
66739;SDS011;53653;52.188;8.602;2023-07-22T04:35:33;21.63;;;9.35;;
66739;SDS011;53653;52.188;8.602;2023-07-22T04:38:02;25.98;;;9.07;;
66739;SDS011;53653;52.188;8.602;2023-07-22T04:40:28;21.77;;;8.50;;
66739;SDS011;53653;52.188;8.602;2023-07-22T04:42:55;20.13;;;8.27;;
66739;SDS011;53653;52.188;8.602;2023-07-22T04:45:24;19.20;;;8.10;;
66739;SDS011;53653;52.188;8.602;2023-07-22T04:47:50;23.23;;;8.63;;
66739;SDS011;53653;52.188;8.602;2023-07-22T04:50:16;19.77;;;7.88;;
66739;SDS011;53653;52.188;8.602;2023-07-22T04:52:42;20.03;;;8.30;;
66739;SDS011;53653;52.188;8.602;2023-07-22T04:55:09;25.30;;;8.70;;
66739;SDS011;53653;52.188;8.602;2023-07-22T04:57:35;21.45;;;8.30;;
66739;SDS011;53653;52.188;8.602;2023-07-22T05:00:02;17.95;;;8.50;;
66739;SDS011;53653;52.188;8.602;2023-07-22T05:02:33;22.47;;;8.43;;
66739;SDS011;53653;52.188;8.602;2023-07-22T05:04:59;19.80;;;8.18;;
66739;SDS011;53653;52.188;8.602;2023-07-22T05:07:24;19.53;;;8.57;;
66739;SDS011;53653;52.188;8.602;2023-07-22T05:09:50;19.27;;;8.57;;
66739;SDS011;53653;52.188;8.602;2023-07-22T05:12:17;24.65;;;8.95;;
66739;SDS011;53653;52.188;8.602;2023-07-22T05:14:42;21.70;;;8.77;;
66739;SDS011;53653;52.188;8.602;2023-07-22T05:17:08;23.43;;;9.13;;
66739;SDS011;53653;52.188;8.602;2023-07-22T05:19:33;24.70;;;8.80;;
66739;SDS011;53653;52.188;8.602;2023-07-22T05:21:58;25.30;;;8.88;;
66739;SDS011;53653;52.188;8.602;2023-07-22T05:24:24;20.03;;;8.93;;
66739;SDS011;53653;52.188;8.602;2023-07-22T05:26:49;27.00;;;9.43;;
66739;SDS011;53653;52.188;8.602;2023-07-22T05:29:15;26.50;;;9.50;;
66739;SDS011;53653;52.188;8.602;2023-07-22T05:31:41;22.90;;;9.73;;
66739;SDS011;53653;52.188;8.602;2023-07-22T05:34:06;25.70;;;10.23;;
66739;SDS011;53653;52.188;8.602;2023-07-22T05:36:32;27.33;;;10.50;;
66739;SDS011;53653;52.188;8.602;2023-07-22T05:38:57;25.27;;;9.70;;
66739;SDS011;53653;52.188;8.602;2023-07-22T05:41:22;26.47;;;9.60;;
66739;SDS011;53653;52.188;8.602;2023-07-22T05:43:48;24.37;;;9.57;;
66739;SDS011;53653;52.188;8.602;2023-07-22T05:46:13;24.58;;;10.10;;
66739;SDS011;53653;52.188;8.602;2023-07-22T05:48:39;22.57;;;9.63;;
66739;SDS011;53653;52.188;8.602;2023-07-22T05:51:04;25.80;;;10.40;;
66739;SDS011;53653;52.188;8.602;2023-07-22T05:53:30;23.97;;;10.40;;
66739;SDS011;53653;52.188;8.602;2023-07-22T05:55:57;23.52;;;9.85;;
66739;SDS011;53653;52.188;8.602;2023-07-22T05:58:22;23.23;;;10.33;;
66739;SDS011;53653;52.188;8.602;2023-07-22T06:00:48;28.85;;;10.32;;
66739;SDS011;53653;52.188;8.602;2023-07-22T06:03:14;24.97;;;9.57;;
66739;SDS011;53653;52.188;8.602;2023-07-22T06:05:39;25.30;;;11.05;;
66739;SDS011;53653;52.188;8.602;2023-07-22T06:08:05;30.47;;;10.70;;
66739;SDS011;53653;52.188;8.602;2023-07-22T06:10:31;25.73;;;11.07;;
66739;SDS011;53653;52.188;8.602;2023-07-22T06:12:57;25.42;;;10.10;;
66739;SDS011;53653;52.188;8.602;2023-07-22T06:15:22;27.27;;;10.45;;
66739;SDS011;53653;52.188;8.602;2023-07-22T06:17:48;26.60;;;11.50;;
66739;SDS011;53653;52.188;8.602;2023-07-22T06:20:13;29.03;;;11.30;;
66739;SDS011;53653;52.188;8.602;2023-07-22T06:22:39;29.27;;;10.50;;
66739;SDS011;53653;52.188;8.602;2023-07-22T06:25:04;22.88;;;10.55;;
66739;SDS011;53653;52.188;8.602;2023-07-22T06:27:31;28.90;;;10.90;;
66739;SDS011;53653;52.188;8.602;2023-07-22T06:29:56;26.47;;;11.17;;
66739;SDS011;53653;52.188;8.602;2023-07-22T06:32:23;23.48;;;10.57;;
66739;SDS011;53653;52.188;8.602;2023-07-22T06:34:48;25.17;;;10.57;;
66739;SDS011;53653;52.188;8.602;2023-07-22T06:37:14;24.17;;;10.95;;
66739;SDS011;53653;52.188;8.602;2023-07-22T06:39:39;26.37;;;10.80;;
66739;SDS011;53653;52.188;8.602;2023-07-22T06:42:05;27.70;;;10.20;;
66739;SDS011;53653;52.188;8.602;2023-07-22T06:44:30;22.17;;;10.30;;
66739;SDS011;53653;52.188;8.602;2023-07-22T06:46:56;21.58;;;10.50;;
66739;SDS011;53653;52.188;8.602;2023-07-22T06:49:21;22.77;;;9.83;;
66739;SDS011;53653;52.188;8.602;2023-07-22T06:51:47;32.92;;;10.75;;
66739;SDS011;53653;52.188;8.602;2023-07-22T06:54:12;24.37;;;10.23;;
66739;SDS011;53653;52.188;8.602;2023-07-22T06:56:38;21.47;;;10.23;;
66739;SDS011;53653;52.188;8.602;2023-07-22T06:59:03;25.77;;;10.37;;
66739;SDS011;53653;52.188;8.602;2023-07-22T07:01:29;22.02;;;10.57;;
66739;SDS011;53653;52.188;8.602;2023-07-22T07:03:54;20.90;;;8.83;;
66739;SDS011;53653;52.188;8.602;2023-07-22T07:06:20;25.10;;;9.98;;
66739;SDS011;53653;52.188;8.602;2023-07-22T07:08:45;21.33;;;9.87;;
66739;SDS011;53653;52.188;8.602;2023-07-22T07:11:11;23.07;;;10.23;;
66739;SDS011;53653;52.188;8.602;2023-07-22T07:13:36;24.17;;;9.33;;
66739;SDS011;53653;52.188;8.602;2023-07-22T07:18:48;20.80;;;9.85;;
66739;SDS011;53653;52.188;8.602;2023-07-22T07:21:14;24.63;;;9.80;;
66739;SDS011;53653;52.188;8.602;2023-07-22T07:23:39;23.75;;;10.68;;
66739;SDS011;53653;52.188;8.602;2023-07-22T07:26:05;21.47;;;10.30;;
66739;SDS011;53653;52.188;8.602;2023-07-22T07:28:30;19.03;;;9.20;;
66739;SDS011;53653;52.188;8.602;2023-07-22T07:30:55;20.80;;;9.47;;
66739;SDS011;53653;52.188;8.602;2023-07-22T07:33:21;24.10;;;10.50;;
66739;SDS011;53653;52.188;8.602;2023-07-22T07:35:46;22.87;;;10.50;;
66739;SDS011;53653;52.188;8.602;2023-07-22T07:38:12;25.33;;;10.93;;
66739;SDS011;53653;52.188;8.602;2023-07-22T07:40:38;24.42;;;10.82;;
66739;SDS011;53653;52.188;8.602;2023-07-22T07:43:03;23.70;;;10.77;;
66739;SDS011;53653;52.188;8.602;2023-07-22T07:45:29;23.53;;;10.77;;
66739;SDS011;53653;52.188;8.602;2023-07-22T07:47:54;26.70;;;11.07;;
66739;SDS011;53653;52.188;8.602;2023-07-22T07:50:20;25.13;;;10.87;;
66739;SDS011;53653;52.188;8.602;2023-07-22T07:52:45;26.48;;;11.50;;
66739;SDS011;53653;52.188;8.602;2023-07-22T07:55:10;24.17;;;10.30;;
66739;SDS011;53653;52.188;8.602;2023-07-22T07:57:36;22.97;;;10.13;;
66739;SDS011;53653;52.188;8.602;2023-07-22T08:00:02;23.85;;;10.15;;
66739;SDS011;53653;52.188;8.602;2023-07-22T08:02:29;25.30;;;10.73;;
66739;SDS011;53653;52.188;8.602;2023-07-22T08:04:55;24.47;;;11.27;;
66739;SDS011;53653;52.188;8.602;2023-07-22T08:07:20;22.70;;;11.40;;
66739;SDS011;53653;52.188;8.602;2023-07-22T08:09:46;25.63;;;10.90;;
66739;SDS011;53653;52.188;8.602;2023-07-22T08:12:14;24.80;;;10.33;;
66739;SDS011;53653;52.188;8.602;2023-07-22T08:14:41;23.45;;;10.15;;
66739;SDS011;53653;52.188;8.602;2023-07-22T08:17:06;25.67;;;10.35;;
66739;SDS011;53653;52.188;8.602;2023-07-22T08:19:32;22.07;;;10.27;;
66739;SDS011;53653;52.188;8.602;2023-07-22T08:21:58;22.75;;;9.80;;
66739;SDS011;53653;52.188;8.602;2023-07-22T08:24:23;21.50;;;10.60;;
66739;SDS011;53653;52.188;8.602;2023-07-22T08:26:49;22.67;;;10.10;;
66739;SDS011;53653;52.188;8.602;2023-07-22T08:29:14;22.35;;;9.75;;
66739;SDS011;53653;52.188;8.602;2023-07-22T08:31:40;20.80;;;9.33;;
66739;SDS011;53653;52.188;8.602;2023-07-22T08:34:05;20.77;;;9.85;;
66739;SDS011;53653;52.188;8.602;2023-07-22T08:36:31;21.83;;;9.73;;
66739;SDS011;53653;52.188;8.602;2023-07-22T08:38:57;20.83;;;9.77;;
66739;SDS011;53653;52.188;8.602;2023-07-22T08:41:22;16.70;;;8.53;;
66739;SDS011;53653;52.188;8.602;2023-07-22T08:43:50;18.85;;;9.27;;
66739;SDS011;53653;52.188;8.602;2023-07-22T08:46:18;18.83;;;8.95;;
66739;SDS011;53653;52.188;8.602;2023-07-22T08:48:46;18.30;;;8.05;;
66739;SDS011;53653;52.188;8.602;2023-07-22T08:51:17;18.17;;;8.37;;
66739;SDS011;53653;52.188;8.602;2023-07-22T08:53:44;19.25;;;8.98;;
66739;SDS011;53653;52.188;8.602;2023-07-22T08:56:12;18.60;;;8.20;;
66739;SDS011;53653;52.188;8.602;2023-07-22T08:58:38;16.35;;;8.48;;
66739;SDS011;53653;52.188;8.602;2023-07-22T09:01:06;19.38;;;8.98;;
66739;SDS011;53653;52.188;8.602;2023-07-22T09:03:32;22.00;;;9.20;;
66739;SDS011;53653;52.188;8.602;2023-07-22T09:05:58;14.32;;;6.95;;
66739;SDS011;53653;52.188;8.602;2023-07-22T09:08:24;15.50;;;7.17;;
66739;SDS011;53653;52.188;8.602;2023-07-22T09:10:49;15.47;;;7.17;;
66739;SDS011;53653;52.188;8.602;2023-07-22T09:13:15;15.73;;;7.72;;
66739;SDS011;53653;52.188;8.602;2023-07-22T09:15:43;15.30;;;6.80;;
66739;SDS011;53653;52.188;8.602;2023-07-22T09:18:10;12.80;;;4.60;;
66739;SDS011;53653;52.188;8.602;2023-07-22T09:20:35;13.75;;;6.50;;
66739;SDS011;53653;52.188;8.602;2023-07-22T09:23:01;15.13;;;6.00;;
66739;SDS011;53653;52.188;8.602;2023-07-22T09:25:27;17.73;;;7.07;;
66739;SDS011;53653;52.188;8.602;2023-07-22T09:27:54;13.37;;;6.30;;
66739;SDS011;53653;52.188;8.602;2023-07-22T09:32:48;12.30;;;5.90;;
66739;SDS011;53653;52.188;8.602;2023-07-22T09:35:13;15.50;;;6.87;;
66739;SDS011;53653;52.188;8.602;2023-07-22T09:37:39;13.98;;;6.78;;
66739;SDS011;53653;52.188;8.602;2023-07-22T09:40:13;15.53;;;7.17;;
66739;SDS011;53653;52.188;8.602;2023-07-22T09:42:52;14.25;;;6.00;;
66739;SDS011;53653;52.188;8.602;2023-07-22T09:45:20;14.90;;;6.72;;
66739;SDS011;53653;52.188;8.602;2023-07-22T09:47:48;16.70;;;6.43;;
66739;SDS011;53653;52.188;8.602;2023-07-22T09:50:18;15.23;;;6.82;;
66739;SDS011;53653;52.188;8.602;2023-07-22T09:52:47;14.05;;;6.15;;
66739;SDS011;53653;52.188;8.602;2023-07-22T09:55:18;14.80;;;6.70;;
66739;SDS011;53653;52.188;8.602;2023-07-22T09:57:55;14.15;;;6.60;;
66739;SDS011;53653;52.188;8.602;2023-07-22T10:00:28;14.50;;;6.37;;
66739;SDS011;53653;52.188;8.602;2023-07-22T10:02:56;14.88;;;6.28;;
66739;SDS011;53653;52.188;8.602;2023-07-22T10:05:22;15.75;;;6.75;;
66739;SDS011;53653;52.188;8.602;2023-07-22T10:07:50;14.98;;;6.50;;
66739;SDS011;53653;52.188;8.602;2023-07-22T10:10:18;13.55;;;6.82;;
66739;SDS011;53653;52.188;8.602;2023-07-22T10:12:45;16.33;;;7.30;;
66739;SDS011;53653;52.188;8.602;2023-07-22T10:15:11;15.43;;;7.18;;
66739;SDS011;53653;52.188;8.602;2023-07-22T10:17:42;13.27;;;6.88;;
66739;SDS011;53653;52.188;8.602;2023-07-22T10:20:09;15.48;;;7.18;;
66739;SDS011;53653;52.188;8.602;2023-07-22T10:22:40;15.10;;;8.13;;
66739;SDS011;53653;52.188;8.602;2023-07-22T10:25:07;17.53;;;7.67;;
66739;SDS011;53653;52.188;8.602;2023-07-22T10:27:34;17.83;;;7.57;;
66739;SDS011;53653;52.188;8.602;2023-07-22T10:30:05;16.95;;;7.80;;
66739;SDS011;53653;52.188;8.602;2023-07-22T10:32:33;16.83;;;8.18;;
66739;SDS011;53653;52.188;8.602;2023-07-22T10:35:09;17.42;;;8.90;;
66739;SDS011;53653;52.188;8.602;2023-07-22T10:37:39;18.97;;;8.67;;
66739;SDS011;53653;52.188;8.602;2023-07-22T10:42:50;20.55;;;9.23;;
66739;SDS011;53653;52.188;8.602;2023-07-22T10:45:24;19.80;;;9.18;;
66739;SDS011;53653;52.188;8.602;2023-07-22T10:50:47;16.47;;;8.63;;
66739;SDS011;53653;52.188;8.602;2023-07-22T11:04:05;13.97;;;6.93;;
66739;SDS011;53653;52.188;8.602;2023-07-22T11:11:57;15.23;;;6.75;;
66739;SDS011;53653;52.188;8.602;2023-07-22T11:14:26;13.73;;;5.97;;
66739;SDS011;53653;52.188;8.602;2023-07-22T11:16:59;11.80;;;6.03;;
66739;SDS011;53653;52.188;8.602;2023-07-22T11:19:26;11.98;;;6.13;;
66739;SDS011;53653;52.188;8.602;2023-07-22T11:21:52;13.30;;;6.97;;
66739;SDS011;53653;52.188;8.602;2023-07-22T11:24:19;13.35;;;6.75;;
66739;SDS011;53653;52.188;8.602;2023-07-22T11:26:46;12.30;;;7.10;;
66739;SDS011;53653;52.188;8.602;2023-07-22T11:29:13;14.27;;;6.50;;
66739;SDS011;53653;52.188;8.602;2023-07-22T11:31:41;11.77;;;5.45;;
66739;SDS011;53653;52.188;8.602;2023-07-22T11:34:09;12.48;;;6.30;;
66739;SDS011;53653;52.188;8.602;2023-07-22T11:36:35;11.77;;;6.15;;
66739;SDS011;53653;52.188;8.602;2023-07-22T11:41:34;14.93;;;6.22;;
66739;SDS011;53653;52.188;8.602;2023-07-22T11:44:00;13.20;;;6.00;;
66739;SDS011;53653;52.188;8.602;2023-07-22T11:46:28;13.00;;;6.13;;
66739;SDS011;53653;52.188;8.602;2023-07-22T11:48:54;15.10;;;6.63;;
66739;SDS011;53653;52.188;8.602;2023-07-22T11:51:24;13.77;;;6.63;;
66739;SDS011;53653;52.188;8.602;2023-07-22T11:53:50;10.63;;;5.40;;
66739;SDS011;53653;52.188;8.602;2023-07-22T11:56:26;12.70;;;5.97;;
66739;SDS011;53653;52.188;8.602;2023-07-22T11:58:53;11.40;;;6.03;;
66739;SDS011;53653;52.188;8.602;2023-07-22T12:01:20;12.80;;;6.07;;
66739;SDS011;53653;52.188;8.602;2023-07-22T12:03:47;12.23;;;5.63;;
66739;SDS011;53653;52.188;8.602;2023-07-22T12:06:13;13.68;;;5.45;;
66739;SDS011;53653;52.188;8.602;2023-07-22T12:08:43;11.15;;;5.22;;
66739;SDS011;53653;52.188;8.602;2023-07-22T12:11:20;15.60;;;5.73;;
66739;SDS011;53653;52.188;8.602;2023-07-22T12:13:47;13.98;;;5.18;;
66739;SDS011;53653;52.188;8.602;2023-07-22T12:16:22;11.20;;;4.68;;
66739;SDS011;53653;52.188;8.602;2023-07-22T12:18:54;11.57;;;5.35;;
66739;SDS011;53653;52.188;8.602;2023-07-22T12:21:19;10.35;;;4.68;;
66739;SDS011;53653;52.188;8.602;2023-07-22T12:23:45;12.53;;;5.20;;
66739;SDS011;53653;52.188;8.602;2023-07-22T12:26:11;11.30;;;5.63;;
66739;SDS011;53653;52.188;8.602;2023-07-22T12:28:36;11.88;;;5.53;;
66739;SDS011;53653;52.188;8.602;2023-07-22T12:31:01;11.37;;;5.23;;
66739;SDS011;53653;52.188;8.602;2023-07-22T12:33:27;13.53;;;5.63;;
66739;SDS011;53653;52.188;8.602;2023-07-22T12:35:53;12.65;;;5.40;;
66739;SDS011;53653;52.188;8.602;2023-07-22T12:38:19;10.90;;;4.80;;
66739;SDS011;53653;52.188;8.602;2023-07-22T12:40:45;10.17;;;5.13;;
66739;SDS011;53653;52.188;8.602;2023-07-22T12:43:11;11.98;;;5.57;;
66739;SDS011;53653;52.188;8.602;2023-07-22T12:45:38;12.37;;;5.43;;
66739;SDS011;53653;52.188;8.602;2023-07-22T12:48:03;11.82;;;5.72;;
66739;SDS011;53653;52.188;8.602;2023-07-22T12:50:30;12.55;;;5.00;;
66739;SDS011;53653;52.188;8.602;2023-07-22T12:52:57;11.67;;;5.70;;
66739;SDS011;53653;52.188;8.602;2023-07-22T12:55:23;13.05;;;5.30;;
66739;SDS011;53653;52.188;8.602;2023-07-22T12:57:48;12.50;;;5.57;;
66739;SDS011;53653;52.188;8.602;2023-07-22T13:00:14;10.73;;;5.00;;
66739;SDS011;53653;52.188;8.602;2023-07-22T13:02:39;10.20;;;5.17;;
66739;SDS011;53653;52.188;8.602;2023-07-22T13:05:05;10.00;;;4.80;;
66739;SDS011;53653;52.188;8.602;2023-07-22T13:07:34;11.37;;;4.53;;
66739;SDS011;53653;52.188;8.602;2023-07-22T13:10:00;10.07;;;4.82;;
66739;SDS011;53653;52.188;8.602;2023-07-22T13:12:28;11.27;;;5.10;;
66739;SDS011;53653;52.188;8.602;2023-07-22T13:14:53;9.03;;;4.67;;
66739;SDS011;53653;52.188;8.602;2023-07-22T13:17:19;10.10;;;4.78;;
66739;SDS011;53653;52.188;8.602;2023-07-22T13:19:45;10.37;;;4.30;;
66739;SDS011;53653;52.188;8.602;2023-07-22T13:22:10;9.38;;;4.50;;
66739;SDS011;53653;52.188;8.602;2023-07-22T13:24:36;9.87;;;4.27;;
66739;SDS011;53653;52.188;8.602;2023-07-22T13:27:01;11.10;;;4.53;;
66739;SDS011;53653;52.188;8.602;2023-07-22T13:29:27;10.37;;;4.30;;
66739;SDS011;53653;52.188;8.602;2023-07-22T13:31:53;7.90;;;4.07;;
66739;SDS011;53653;52.188;8.602;2023-07-22T13:34:18;8.98;;;4.30;;
66739;SDS011;53653;52.188;8.602;2023-07-22T13:36:45;11.83;;;4.63;;
66739;SDS011;53653;52.188;8.602;2023-07-22T13:39:11;9.85;;;4.32;;
66739;SDS011;53653;52.188;8.602;2023-07-22T13:41:36;10.23;;;4.53;;
66739;SDS011;53653;52.188;8.602;2023-07-22T13:44:02;9.43;;;4.30;;
66739;SDS011;53653;52.188;8.602;2023-07-22T13:46:28;12.13;;;4.57;;
66739;SDS011;53653;52.188;8.602;2023-07-22T13:48:53;9.93;;;4.70;;
66739;SDS011;53653;52.188;8.602;2023-07-22T13:51:19;9.47;;;4.27;;
66739;SDS011;53653;52.188;8.602;2023-07-22T13:53:44;11.83;;;5.13;;
66739;SDS011;53653;52.188;8.602;2023-07-22T13:56:10;11.17;;;4.70;;
66739;SDS011;53653;52.188;8.602;2023-07-22T13:58:35;11.07;;;4.97;;
66739;SDS011;53653;52.188;8.602;2023-07-22T14:01:00;9.37;;;5.00;;
66739;SDS011;53653;52.188;8.602;2023-07-22T14:03:26;10.48;;;4.80;;
66739;SDS011;53653;52.188;8.602;2023-07-22T14:05:51;9.20;;;4.93;;
66739;SDS011;53653;52.188;8.602;2023-07-22T14:08:17;9.20;;;4.20;;
66739;SDS011;53653;52.188;8.602;2023-07-22T14:10:42;9.27;;;4.67;;
66739;SDS011;53653;52.188;8.602;2023-07-22T14:13:08;8.70;;;4.45;;
66739;SDS011;53653;52.188;8.602;2023-07-22T14:15:33;8.43;;;4.30;;
66739;SDS011;53653;52.188;8.602;2023-07-22T14:17:59;8.27;;;3.83;;
66739;SDS011;53653;52.188;8.602;2023-07-22T14:20:24;10.38;;;4.30;;
66739;SDS011;53653;52.188;8.602;2023-07-22T14:22:50;9.03;;;3.90;;
66739;SDS011;53653;52.188;8.602;2023-07-22T14:25:16;8.50;;;3.87;;
66739;SDS011;53653;52.188;8.602;2023-07-22T14:27:41;11.43;;;4.00;;
66739;SDS011;53653;52.188;8.602;2023-07-22T14:30:07;7.77;;;3.60;;
66739;SDS011;53653;52.188;8.602;2023-07-22T14:32:34;8.37;;;3.80;;
66739;SDS011;53653;52.188;8.602;2023-07-22T14:34:59;8.73;;;3.90;;
66739;SDS011;53653;52.188;8.602;2023-07-22T14:37:25;10.27;;;3.97;;
66739;SDS011;53653;52.188;8.602;2023-07-22T14:39:50;8.43;;;3.97;;
66739;SDS011;53653;52.188;8.602;2023-07-22T14:42:16;9.57;;;4.30;;
66739;SDS011;53653;52.188;8.602;2023-07-22T14:44:41;9.03;;;3.60;;
66739;SDS011;53653;52.188;8.602;2023-07-22T14:47:07;10.20;;;3.93;;
66739;SDS011;53653;52.188;8.602;2023-07-22T14:49:32;7.30;;;3.50;;
66739;SDS011;53653;52.188;8.602;2023-07-22T14:51:58;9.67;;;3.60;;
66739;SDS011;53653;52.188;8.602;2023-07-22T14:54:23;7.73;;;3.70;;
66739;SDS011;53653;52.188;8.602;2023-07-22T14:56:49;8.52;;;3.60;;
66739;SDS011;53653;52.188;8.602;2023-07-22T14:59:14;8.37;;;3.73;;